North Branch, MN (55056)

2:05 AM CST on February 12, 2016 (GMT -0600)
Amador Township | | Change Station
CLOSE
Current Station
Personal Weather Station
Location: Almelund, MN
Elevation: 880 ft
Nearby Weather Stations

Elev 880 ft 45.55 °N, 92.80 °W | Updated 47 seconds ago

Overcast
Overcast
13.5 °F
Feels Like 0 °F
N
11.5
Wind Variable Wind from WNW
Gusts 11.5 mph

Today
High -- | Low -- °F
--% Chance of Precip.
Yesterday
High -- | Low -- °F
Precip. -- in
Pressure 30.18 in
Visibility 10.0 miles
Clouds Overcast 3600 ft
Windchill 0 °F
Dew Point 7 °F
Humidity 76%
Rainfall 0.00 in
Snow Depth Not available.
7:18 AM 5:33 PM
Waxing Crescent, 18% visible
METAR KROS 120756Z AUTO 31008KT 10SM OVC036 M10/M14 A3018 RMK AO2 T11031138
Pressure 30.18 in
Visibility 10.0 miles
Clouds Overcast 3600 ft
Windchill 0 °F
Dew Point 7 °F
Humidity 76%
Rainfall 0.00 in
Snow Depth Not available.
7:18 AM 5:33 PM
Waxing Crescent, 18% visible
METAR KROS 120756Z AUTO 31008KT 10SM OVC036 M10/M14 A3018 RMK AO2 T11031138

10-Day Weather Forecast

Almanac

Astronomy

Feb. 12, 2016 Rise Set
Actual Time
Civil Twilight
Nautical Twilight
Astronomical Twilight
Moon
Length of Visible Light
Length of Day
Tomorrow will be .
, % of the Moon is Illuminated

Today's Extremes

State Highs State Lows

Community

WunderPhotos

Upload Photos

1,892,278 photos uploaded!

WunderBlog® & News

Nearby

Air Quality

  Air Quality AQ Index Pollutant
Not available.

Snow Depth

Station Depth Elevation

Earthquake Activity

City Distance Mag. Time & Date
Minimum magnitude displayed is 2.5.

Coastal Water Temperatures

Place Temperature

Stations

Nearby Weather Stations

Station Location Temp. Windchill Dew Point Humidity Wind Precip. Elev Updated Type
                   

Watches & Warnings

There are currently no watches in effect.